Time;durP1;ratioP1;P1;durP2;ratioP2;P2;SDS_P1;SDS_P2;PMS_P1;PMS_P2;Temp;Humidity;BMP_temperature;BMP_pressure;BME280_temperature;BME280_humidity;BME280_pressure;Samples;Min_cycle;Max_cycle;Signal;HPM_P1;HPM_P2
2023/08/19 00:02:06;;;;;;;9.80;8.50;;;;;;;19.87;93.96;96937.17;108972;1264;22528;-84
2023/08/19 00:04:37;;;;;;;10.30;8.90;;;;;;;19.86;93.78;96935.15;108928;1264;22614;-84
2023/08/19 00:07:09;;;;;;;10.80;8.80;;;;;;;19.84;93.43;96934.13;108935;1271;25541;-84
2023/08/19 00:09:40;;;;;;;11.00;8.80;;;;;;;19.64;92.86;96932.63;108957;1264;22808;-84
2023/08/19 00:12:11;;;;;;;9.90;8.40;;;;;;;19.40;92.96;96929.39;108960;1267;24212;-85
2023/08/19 00:14:42;;;;;;;10.10;8.90;;;;;;;19.27;93.66;96924.08;108952;1270;23783;-84
2023/08/19 00:17:13;;;;;;;12.10;9.40;;;;;;;19.20;94.43;96930.89;108949;1271;25415;-84
2023/08/19 00:19:44;;;;;;;10.00;9.00;;;;;;;19.17;94.83;96925.92;108967;1270;22581;-84
2023/08/19 00:22:15;;;;;;;12.00;9.90;;;;;;;19.14;95.19;96927.14;108989;1263;22522;-84
2023/08/19 00:24:46;;;;;;;10.80;9.20;;;;;;;19.09;95.17;96931.77;108979;1270;26583;-84
2023/08/19 00:27:17;;;;;;;10.00;9.00;;;;;;;19.06;95.51;96925.81;108968;1264;22650;-84
2023/08/19 00:29:48;;;;;;;11.30;10.20;;;;;;;19.03;95.80;96923.70;108922;1270;22706;-84
2023/08/19 00:32:19;;;;;;;11.90;9.80;;;;;;;19.00;96.08;96918.18;108946;1270;22508;-84
2023/08/19 00:34:51;;;;;;;10.00;9.00;;;;;;;19.03;96.63;96914.48;108942;1270;22553;-84
2023/08/19 00:37:22;;;;;;;11.20;9.60;;;;;;;19.09;96.76;96911.69;108956;1270;23205;-85
2023/08/19 00:39:53;;;;;;;11.40;10.20;;;;;;;19.13;96.81;96912.48;108942;1270;22503;-84
2023/08/19 00:42:24;;;;;;;11.80;10.50;;;;;;;19.19;97.10;96909.05;108969;1270;22511;-84
2023/08/19 00:44:55;;;;;;;11.30;10.00;;;;;;;19.25;97.16;96909.94;108952;1267;25468;-84
2023/08/19 00:47:27;;;;;;;12.60;10.60;;;;;;;19.31;97.35;96909.48;108943;1264;22519;-84
2023/08/19 00:49:58;;;;;;;11.60;10.40;;;;;;;19.36;97.40;96909.21;108883;1267;22556;-84
2023/08/19 00:52:29;;;;;;;11.50;10.40;;;;;;;19.38;97.30;96908.98;108985;1270;23801;-84
2023/08/19 00:55:01;;;;;;;10.20;9.20;;;;;;;19.39;97.07;96913.39;108933;1269;24111;-84
2023/08/19 00:57:33;;;;;;;12.50;10.20;;;;;;;19.32;96.67;96909.59;108937;1264;22516;-85
2023/08/19 01:00:05;;;;;;;10.20;9.10;;;;;;;19.24;96.58;96909.04;108932;1264;24240;-84
2023/08/19 01:02:36;;;;;;;11.30;10.10;;;;;;;19.15;96.89;96903.83;108938;1270;22564;-85
2023/08/19 01:05:09;;;;;;;11.80;10.50;;;;;;;19.11;97.16;96905.33;108972;1270;23715;-85
2023/08/19 01:07:46;;;;;;;11.60;10.40;;;;;;;19.08;97.51;96907.14;108954;1267;22566;-85
2023/08/19 01:10:24;;;;;;;11.20;10.00;;;;;;;19.08;97.80;96909.27;108912;1268;22562;-85
2023/08/19 01:13:04;;;;;;;12.10;10.90;;;;;;;19.08;98.42;96911.50;108952;1270;22530;-85
2023/08/19 01:15:42;;;;;;;10.70;9.60;;;;;;;19.10;98.92;96909.59;108972;1264;22545;-84
2023/08/19 01:18:16;;;;;;;11.40;10.20;;;;;;;19.13;99.04;96908.24;109023;1270;22511;-85
2023/08/19 01:20:47;;;;;;;11.00;9.90;;;;;;;19.16;99.51;96908.37;109059;1270;25599;-85
2023/08/19 01:23:24;;;;;;;11.40;10.30;;;;;;;19.19;99.71;96908.66;109066;1262;22722;-85
2023/08/19 01:25:55;;;;;;;11.30;10.00;;;;;;;19.24;99.92;96908.91;109082;1262;23822;-85
2023/08/19 01:28:27;;;;;;;10.80;9.70;;;;;;;19.27;99.74;96909.42;109021;1270;25266;-85
2023/08/19 01:30:59;;;;;;;10.80;9.80;;;;;;;19.28;99.78;96911.06;109042;1270;22518;-85
2023/08/19 01:33:31;;;;;;;11.10;9.90;;;;;;;19.31;99.76;96912.17;109086;1270;22523;-85
2023/08/19 01:36:11;;;;;;;11.50;10.40;;;;;;;19.33;99.84;96912.91;109068;1270;23473;-85
2023/08/19 01:38:50;;;;;;;12.00;9.90;;;;;;;19.34;99.87;96917.96;109218;1269;23945;-85
2023/08/19 01:41:26;;;;;;;11.60;10.50;;;;;;;19.37;99.85;96919.38;109299;1268;25417;-85
2023/08/19 01:43:58;;;;;;;10.60;8.60;;;;;;;19.41;99.82;96915.77;109256;1268;22544;-84
2023/08/19 01:46:30;;;;;;;10.80;9.80;;;;;;;19.46;99.55;96920.73;109278;1268;23838;-84
2023/08/19 01:49:01;;;;;;;10.90;9.60;;;;;;;19.47;99.49;96919.23;109251;1269;22532;-85
2023/08/19 01:51:32;;;;;;;11.50;10.10;;;;;;;19.47;99.28;96917.45;109340;1262;25277;-84
2023/08/19 01:54:04;;;;;;;11.40;9.30;;;;;;;19.52;99.47;96917.09;109354;1269;22516;-85
2023/08/19 01:56:35;;;;;;;12.70;10.10;;;;;;;19.58;99.40;96912.05;109311;1269;22515;-85
2023/08/19 01:59:06;;;;;;;9.70;8.70;;;;;;;19.64;99.27;96907.04;109322;1269;23015;-84
2023/08/19 02:01:37;;;;;;;11.80;9.30;;;;;;;19.68;99.04;96904.17;109334;1269;22515;-85
2023/08/19 02:04:09;;;;;;;10.40;9.40;;;;;;;19.73;98.89;96899.84;109347;1269;24219;-85
2023/08/19 02:06:40;;;;;;;10.10;9.10;;;;;;;19.79;98.84;96903.89;109337;1269;22564;-84
2023/08/19 02:09:11;;;;;;;11.40;9.80;;;;;;;19.83;98.55;96904.23;109324;1269;23135;-85
2023/08/19 02:11:42;;;;;;;11.00;9.60;;;;;;;19.84;98.29;96900.23;109264;1269;22521;-85
2023/08/19 02:14:15;;;;;;;12.40;10.60;;;;;;;19.84;98.09;96894.32;109352;1262;22515;-84
2023/08/19 02:16:46;;;;;;;10.20;9.20;;;;;;;19.82;97.87;96898.14;109291;1269;22631;-85
2023/08/19 02:19:17;;;;;;;11.20;9.60;;;;;;;19.79;97.98;96897.13;109399;1269;22513;-84
2023/08/19 02:21:48;;;;;;;10.40;8.60;;;;;;;19.78;97.88;96899.63;109333;1269;22524;-85
2023/08/19 02:24:19;;;;;;;10.50;9.40;;;;;;;19.79;97.97;96899.34;109338;1269;25230;-85
2023/08/19 02:26:50;;;;;;;11.20;10.00;;;;;;;19.79;97.98;96902.41;109349;1269;22530;-85
2023/08/19 02:29:21;;;;;;;11.80;9.60;;;;;;;19.80;97.70;96905.31;109367;1262;22527;-85
2023/08/19 02:31:52;;;;;;;10.50;9.40;;;;;;;19.79;97.63;96904.90;109338;1269;26418;-84
2023/08/19 02:34:26;;;;;;;10.70;9.70;;;;;;;19.80;97.65;96903.45;109332;1269;23893;-84
2023/08/19 02:36:57;;;;;;;10.80;9.70;;;;;;;19.82;97.53;96902.98;109320;1262;22504;-84
2023/08/19 02:39:29;;;;;;;10.20;9.10;;;;;;;19.85;97.45;96904.14;109365;1253;22508;-85
2023/08/19 02:42:00;;;;;;;13.40;9.70;;;;;;;19.88;97.23;96906.90;109371;1262;22519;-84
2023/08/19 02:44:31;;;;;;;10.40;9.30;;;;;;;19.89;97.08;96910.85;109348;1269;24232;-84
2023/08/19 02:47:02;;;;;;;11.20;10.00;;;;;;;19.89;96.84;96910.85;109299;1269;76599;-84
2023/08/19 02:49:34;;;;;;;10.10;9.10;;;;;;;19.86;96.76;96907.92;109297;1269;22514;-84
2023/08/19 02:52:06;;;;;;;9.70;8.80;;;;;;;19.84;96.57;96905.31;109297;1269;22509;-84
2023/08/19 02:54:40;;;;;;;10.60;9.50;;;;;;;19.83;96.45;96907.65;109330;1262;24164;-85
2023/08/19 02:57:11;;;;;;;10.40;9.40;;;;;;;19.83;96.43;96907.48;109332;1263;27088;-84
2023/08/19 02:59:42;;;;;;;11.00;9.80;;;;;;;19.84;96.37;96906.45;109387;1265;22602;-84
2023/08/19 03:02:13;;;;;;;11.30;10.20;;;;;;;19.87;96.37;96911.02;109341;1269;22717;-84
2023/08/19 03:04:46;;;;;;;10.50;9.50;;;;;;;19.89;96.16;96911.23;109324;1269;22511;-84
2023/08/19 03:07:19;;;;;;;10.80;9.60;;;;;;;19.89;96.11;96910.54;109313;1269;22531;-84
2023/08/19 03:09:52;;;;;;;10.70;9.70;;;;;;;19.88;95.92;96909.69;109355;1269;22521;-85
2023/08/19 03:12:25;;;;;;;10.80;9.70;;;;;;;19.89;95.83;96910.70;109388;1263;22511;-84
2023/08/19 03:14:56;;;;;;;11.10;10.00;;;;;;;19.90;95.66;96910.20;109304;1262;22524;-84
2023/08/19 03:17:29;;;;;;;10.70;9.30;;;;;;;19.92;95.75;96910.34;109374;1263;22504;-84
2023/08/19 03:20:01;;;;;;;14.40;9.70;;;;;;;19.93;95.63;96913.52;109281;1269;22537;-84
2023/08/19 03:22:32;;;;;;;10.60;9.20;;;;;;;19.92;95.60;96918.27;109368;1269;22511;-84
2023/08/19 03:25:04;;;;;;;10.30;9.20;;;;;;;19.92;95.45;96922.34;109346;1265;26460;-85
2023/08/19 03:27:35;;;;;;;10.60;9.50;;;;;;;19.91;95.42;96921.23;109355;1265;22574;-84
2023/08/19 03:30:08;;;;;;;10.70;9.40;;;;;;;19.89;95.23;96922.70;109347;1268;22545;-84
2023/08/19 03:32:40;;;;;;;10.30;8.80;;;;;;;19.88;95.35;96924.44;109386;1262;22529;-85
2023/08/19 03:35:12;;;;;;;10.10;9.10;;;;;;;19.91;95.40;96925.83;109371;1262;25245;-85
2023/08/19 03:37:45;;;;;;;10.60;8.90;;;;;;;19.96;95.32;96921.71;109336;1262;22533;-85
2023/08/19 03:40:16;;;;;;;11.00;8.50;;;;;;;20.04;95.22;96928.23;109344;1268;22549;-84
2023/08/19 03:42:49;;;;;;;11.00;9.90;;;;;;;20.08;95.05;96933.83;109352;1268;22599;-84
2023/08/19 03:45:20;;;;;;;10.10;8.80;;;;;;;20.12;94.95;96935.97;109374;1268;22611;-84
2023/08/19 03:47:51;;;;;;;11.10;9.80;;;;;;;20.13;94.81;96936.41;109383;1268;25993;-84
2023/08/19 03:50:22;;;;;;;10.20;9.20;;;;;;;20.15;94.66;96941.07;109325;1263;22508;-84
2023/08/19 03:52:55;;;;;;;11.30;9.90;;;;;;;20.14;94.65;96940.13;109362;1268;22591;-84
2023/08/19 03:55:26;;;;;;;9.80;8.90;;;;;;;20.13;94.53;96941.48;109373;1268;24219;-84
2023/08/19 03:57:57;;;;;;;10.00;9.00;;;;;;;20.15;94.61;96943.38;109361;1262;22533;-84
2023/08/19 04:00:28;;;;;;;9.40;8.60;;;;;;;20.18;94.46;96944.93;109355;1263;22504;-84
2023/08/19 04:02:59;;;;;;;10.40;9.30;;;;;;;20.21;94.48;96949.02;109280;1247;22527;-84
2023/08/19 04:05:30;;;;;;;9.60;8.70;;;;;;;20.24;94.40;96942.60;109344;1263;23803;-84
2023/08/19 04:08:01;;;;;;;9.50;8.60;;;;;;;20.28;94.35;96943.81;109285;1265;25390;-84
2023/08/19 04:10:32;;;;;;;10.20;9.20;;;;;;;20.31;94.56;96942.09;109363;1268;22521;-84
2023/08/19 04:13:04;;;;;;;9.90;9.00;;;;;;;20.36;94.34;96939.77;109336;1265;25243;-84
2023/08/19 04:15:35;;;;;;;9.60;8.60;;;;;;;20.39;94.22;96938.27;109403;1265;22597;-84
2023/08/19 04:18:08;;;;;;;10.50;9.50;;;;;;;20.44;94.16;96939.02;109346;1268;22518;-84
2023/08/19 04:20:40;;;;;;;10.10;9.10;;;;;;;20.49;94.22;96937.55;109350;1261;23944;-84
2023/08/19 04:23:11;;;;;;;10.30;9.20;;;;;;;20.55;93.90;96938.08;109337;1269;22510;-84
2023/08/19 04:25:42;;;;;;;10.50;8.80;;;;;;;20.61;93.89;96937.20;109358;1265;22518;-84
2023/08/19 04:28:14;;;;;;;12.00;8.80;;;;;;;20.66;93.73;96940.50;109322;1269;22511;-84
2023/08/19 04:30:45;;;;;;;9.40;8.30;;;;;;;20.71;93.71;96940.70;109328;1265;22777;-84
2023/08/19 04:33:16;;;;;;;9.50;8.60;;;;;;;20.80;93.58;96943.50;109310;1265;22638;-84
2023/08/19 04:35:49;;;;;;;8.90;8.00;;;;;;;21.04;94.86;96942.88;109356;1262;22512;-84
2023/08/19 04:38:20;;;;;;;9.40;7.40;;;;;;;21.51;95.18;96944.65;109363;1262;22545;-84
2023/08/19 04:40:56;;;;;;;9.70;8.00;;;;;;;21.89;93.51;96941.83;109332;1268;22511;-84
2023/08/19 04:43:31;;;;;;;9.80;8.40;;;;;;;21.90;91.13;96942.16;109337;1269;24128;-84
2023/08/19 04:46:03;;;;;;;9.40;7.60;;;;;;;21.67;90.22;96946.80;109292;1262;22537;-84
2023/08/19 04:48:34;;;;;;;8.90;8.00;;;;;;;21.61;90.81;96950.64;109297;1269;25946;-84
2023/08/19 04:51:05;;;;;;;12.00;8.80;;;;;;;21.81;91.22;96945.14;109347;1269;22579;-84
2023/08/19 04:53:36;;;;;;;9.20;8.30;;;;;;;22.19;91.00;96950.20;109317;1269;25747;-84
2023/08/19 04:56:07;;;;;;;8.80;7.90;;;;;;;22.34;89.18;96950.08;109320;1262;25244;-85
2023/08/19 04:58:39;;;;;;;9.10;8.10;;;;;;;22.12;88.22;96947.56;109353;1247;22507;-76
2023/08/19 05:01:10;;;;;;;8.80;8.00;;;;;;;21.92;88.28;96946.13;109289;1268;22511;-76
2023/08/19 05:03:41;;;;;;;8.90;8.00;;;;;;;21.80;88.30;96948.04;109298;1269;22741;-76
2023/08/19 05:06:12;;;;;;;9.70;8.20;;;;;;;21.69;88.11;96951.27;109260;1269;25330;-76
2023/08/19 05:08:43;;;;;;;9.10;8.20;;;;;;;21.59;88.25;96953.82;109309;1262;23105;-77
2023/08/19 05:11:14;;;;;;;8.80;8.00;;;;;;;21.51;88.21;96953.52;109252;1262;22515;-77
2023/08/19 05:13:46;;;;;;;9.10;8.30;;;;;;;21.43;88.21;96960.69;109309;1262;22653;-77
2023/08/19 05:16:17;;;;;;;10.90;8.90;;;;;;;21.39;88.31;96963.30;109222;1269;22530;-76
2023/08/19 05:19:04;;;;;;;9.60;8.60;;;;;;;21.37;88.50;96962.00;109091;1270;23469;-77
2023/08/19 05:21:35;;;;;;;9.40;8.40;;;;;;;21.44;88.80;96967.17;109098;1267;22555;-77
2023/08/19 05:24:08;;;;;;;8.70;7.80;;;;;;;21.50;88.54;96970.73;109109;1262;24447;-77
2023/08/19 05:26:39;;;;;;;10.00;8.60;;;;;;;21.49;88.38;96971.72;109122;1270;22512;-76
2023/08/19 05:29:11;;;;;;;12.00;8.70;;;;;;;21.60;88.96;96972.20;109092;1270;23101;-77
2023/08/19 05:31:42;;;;;;;10.80;8.40;;;;;;;21.95;89.43;96974.45;109090;1270;22528;-77
2023/08/19 05:34:14;;;;;;;9.80;8.60;;;;;;;22.26;89.40;96977.80;109149;1270;22496;-76
2023/08/19 05:36:46;;;;;;;9.50;7.90;;;;;;;22.78;89.39;96979.93;109041;1262;22532;-77
2023/08/19 05:39:17;;;;;;;12.90;8.30;;;;;;;23.34;87.72;96974.88;109108;1270;22513;-78
2023/08/19 05:41:48;;;;;;;8.00;7.10;;;;;;;23.73;86.13;96975.38;109103;1270;23487;-78
2023/08/19 05:44:20;;;;;;;13.70;7.90;;;;;;;24.08;84.60;96977.81;109134;1270;22549;-77
2023/08/19 05:46:51;;;;;;;10.80;7.20;;;;;;;24.39;83.64;96982.76;109055;1270;26059;-77
2023/08/19 05:49:22;;;;;;;8.70;7.10;;;;;;;24.61;82.34;96986.42;109108;1267;22550;-77
2023/08/19 05:51:53;;;;;;;7.60;6.60;;;;;;;24.67;81.03;96991.89;109133;1270;25410;-78
2023/08/19 05:54:24;;;;;;;9.30;7.00;;;;;;;24.59;80.30;96988.02;109131;1259;22519;-77
2023/08/19 05:56:55;;;;;;;7.90;6.70;;;;;;;24.70;80.09;96986.98;109121;1262;22525;-77
2023/08/19 05:59:26;;;;;;;9.10;7.10;;;;;;;24.99;79.93;96983.06;109090;1262;22506;-77
2023/08/19 06:02:00;;;;;;;7.20;6.50;;;;;;;25.37;79.69;96984.60;109115;1247;23327;-78
2023/08/19 06:04:31;;;;;;;7.80;7.00;;;;;;;25.76;78.94;96984.26;109080;1270;26760;-78
2023/08/19 06:07:02;;;;;;;7.20;6.60;;;;;;;26.06;78.06;96983.70;109140;1270;22538;-78
2023/08/19 06:09:33;;;;;;;7.10;6.40;;;;;;;26.33;77.27;96988.06;109029;1266;24203;-78
2023/08/19 06:12:05;;;;;;;9.90;7.40;;;;;;;26.56;76.45;96988.18;109089;1270;22509;-78
2023/08/19 06:14:36;;;;;;;7.20;6.40;;;;;;;26.76;75.52;96993.03;109105;1263;22507;-78
2023/08/19 06:17:08;;;;;;;8.40;6.90;;;;;;;26.85;74.41;96989.69;109100;1270;25076;-78
2023/08/19 06:19:40;;;;;;;7.30;6.50;;;;;;;26.98;74.05;96994.48;109074;1270;22529;-79
2023/08/19 06:22:11;;;;;;;7.50;6.80;;;;;;;27.03;73.10;96990.73;109105;1270;23730;-79
2023/08/19 06:24:42;;;;;;;7.40;6.30;;;;;;;27.00;72.52;96991.09;109126;1270;22511;-79
2023/08/19 06:27:13;;;;;;;9.50;7.20;;;;;;;27.09;72.32;96994.60;109120;1270;22785;-79
2023/08/19 06:29:44;;;;;;;9.00;6.60;;;;;;;27.19;71.92;96995.38;109073;1247;23124;-79
2023/08/19 06:32:17;;;;;;;9.00;6.50;;;;;;;27.26;70.96;96996.66;109101;1266;22534;-78
2023/08/19 06:34:51;;;;;;;8.70;6.70;;;;;;;27.19;70.12;96996.08;109141;1246;22532;-79
2023/08/19 06:37:25;;;;;;;7.10;6.40;;;;;;;27.19;69.82;96998.10;109135;1269;23552;-78
2023/08/19 06:40:05;;;;;;;7.00;6.30;;;;;;;27.15;69.42;96996.43;109101;1270;22566;-81
2023/08/19 06:42:37;;;;;;;7.90;6.60;;;;;;;27.29;69.23;97000.20;109151;1270;22511;-79
2023/08/19 06:45:10;;;;;;;6.50;5.90;;;;;;;27.43;69.14;97001.31;109057;1270;25408;-79
2023/08/19 06:47:45;;;;;;;7.00;6.30;;;;;;;27.67;68.56;97000.71;109125;1270;22518;-79
2023/08/19 06:50:18;;;;;;;7.30;6.50;;;;;;;27.87;68.17;96999.35;109073;1269;22545;-79
2023/08/19 06:52:51;;;;;;;8.30;6.60;;;;;;;28.14;68.30;97003.76;109091;1270;22736;-79
2023/08/19 06:55:23;;;;;;;7.20;6.50;;;;;;;28.49;67.87;96999.38;109156;1270;24080;-79
2023/08/19 06:58:03;;;;;;;7.90;6.80;;;;;;;28.80;67.39;97002.02;109115;1270;22638;-79
2023/08/19 07:00:37;;;;;;;7.00;6.20;;;;;;;29.13;66.73;97007.99;109122;1270;24213;-79
2023/08/19 07:03:10;;;;;;;6.70;5.90;;;;;;;29.36;65.60;97002.38;109133;1259;22623;-79
2023/08/19 07:05:43;;;;;;;8.10;6.20;;;;;;;29.50;64.84;97002.39;109134;1262;22631;-79
2023/08/19 07:08:19;;;;;;;6.70;6.00;;;;;;;29.70;64.77;97003.45;109146;1262;22613;-78
2023/08/19 07:10:51;;;;;;;6.50;5.80;;;;;;;29.88;63.37;97003.17;109123;1267;25430;-79
2023/08/19 16:26:20;;;;;;;5.30;3.80;;;;;;;25.42;67.86;97035.23;106441;1302;24451;-77
2023/08/19 16:28:50;;;;;;;6.80;3.90;;;;;;;25.29;66.76;97037.98;107800;1279;22553;-77
2023/08/19 16:31:21;;;;;;;5.10;4.20;;;;;;;25.18;66.98;97044.40;107790;1285;22650;-80
2023/08/19 16:33:50;;;;;;;6.10;4.80;;;;;;;25.29;67.11;97050.86;109036;1274;26438;-80
2023/08/19 16:36:19;;;;;;;5.90;5.00;;;;;;;25.51;66.88;97058.66;108638;1274;47661;-81
2023/08/19 16:38:50;;;;;;;7.40;5.70;;;;;;;25.52;66.69;97060.77;108690;1269;22550;-81
2023/08/19 16:41:19;;;;;;;6.30;5.10;;;;;;;25.58;66.91;97061.02;108641;1274;22538;-81
2023/08/19 16:43:48;;;;;;;8.60;5.70;;;;;;;25.57;66.85;97065.80;108682;1274;22528;-82
2023/08/19 16:46:17;;;;;;;6.80;5.50;;;;;;;25.80;67.26;97074.02;108624;1274;22660;-81
2023/08/19 16:48:47;;;;;;;6.50;5.40;;;;;;;25.99;66.76;97079.41;108661;1272;27918;-82
2023/08/19 16:51:17;;;;;;;8.60;5.70;;;;;;;26.07;66.43;97084.65;108774;1268;23933;-82
2023/08/19 16:53:44;;;;;;;;;;;;;;;26.16;66.44;97083.84;108665;1274;24272;-82
2023/08/19 16:56:13;;;;;;;5.90;5.10;;;;;;;26.27;66.11;97082.58;108631;1269;22529;-82
2023/08/19 16:58:42;;;;;;;6.50;5.30;;;;;;;26.32;65.84;97079.69;108950;1274;22538;-82
2023/08/19 17:01:10;;;;;;;7.10;5.20;;;;;;;26.42;65.67;97081.92;108678;1274;22552;-82
2023/08/19 17:03:39;;;;;;;5.90;4.80;;;;;;;26.40;64.65;97091.77;108909;1272;22651;-79
2023/08/19 17:06:07;;;;;;;4.90;4.10;;;;;;;26.22;64.53;97096.73;108672;1272;25367;-79
2023/08/19 17:08:36;;;;;;;3.80;3.50;;;;;;;25.93;63.56;97099.34;108726;1274;22538;-79
2023/08/19 17:11:05;;;;;;;6.10;3.90;;;;;;;25.28;62.86;97098.83;108770;1274;22614;-78
2023/08/19 17:13:34;;;;;;;4.20;3.60;;;;;;;24.63;63.53;97099.79;108722;1274;22558;-80
2023/08/19 17:16:03;;;;;;;4.60;3.80;;;;;;;24.12;64.16;97098.71;108711;1266;22563;-80
2023/08/19 17:18:34;;;;;;;6.40;5.10;;;;;;;23.65;65.39;97094.41;108747;1274;25227;-80
2023/08/19 17:21:03;;;;;;;4.70;4.10;;;;;;;23.45;66.36;97093.36;108744;1269;22531;-82
2023/08/19 17:23:32;;;;;;;5.50;4.10;;;;;;;23.37;66.60;97094.08;108761;1269;25415;-81
2023/08/19 17:26:01;;;;;;;6.90;4.40;;;;;;;23.39;67.15;97096.37;108763;1274;22630;-81
2023/08/19 17:28:30;;;;;;;5.10;3.90;;;;;;;23.40;67.26;97093.64;108790;1270;22540;-81
2023/08/19 17:31:03;;;;;;;4.50;3.90;;;;;;;23.24;67.17;97093.61;108720;1274;22534;-82
2023/08/19 17:33:35;;;;;;;7.50;5.90;;;;;;;22.98;67.65;97083.27;108772;1272;25300;-81
2023/08/19 17:36:07;;;;;;;9.00;6.30;;;;;;;22.76;68.49;97086.55;108727;1271;26003;-80
2023/08/19 17:38:36;;;;;;;8.50;5.90;;;;;;;22.70;69.48;97092.73;108785;1274;22539;-81
2023/08/19 17:41:04;;;;;;;7.10;5.30;;;;;;;22.77;69.97;97093.84;108709;1274;22531;-81
2023/08/19 17:43:33;;;;;;;5.60;4.80;;;;;;;22.79;70.31;97096.37;108763;1274;22508;-82
2023/08/19 17:46:03;;;;;;;6.30;5.20;;;;;;;22.78;70.53;97098.09;108720;1272;24180;-82
2023/08/19 17:48:32;;;;;;;9.10;5.40;;;;;;;22.74;70.63;97102.16;108785;1274;22518;-79
2023/08/19 17:51:01;;;;;;;7.40;5.80;;;;;;;22.70;70.99;97116.19;108781;1274;22546;-80
2023/08/19 17:53:29;;;;;;;7.70;5.30;;;;;;;22.59;71.00;97117.88;108767;1274;22696;-79
2023/08/19 17:56:01;;;;;;;7.40;6.00;;;;;;;22.31;71.44;97115.77;108754;1274;26576;-78
2023/08/19 17:58:31;;;;;;;8.20;5.40;;;;;;;22.06;71.95;97116.27;108739;1274;22666;-80
2023/08/19 18:01:00;;;;;;;7.40;5.90;;;;;;;21.84;72.56;97111.63;108673;1268;22538;-79
2023/08/19 18:03:29;;;;;;;7.60;5.70;;;;;;;21.71;73.49;97116.88;108646;1269;22532;-78
2023/08/19 18:05:59;;;;;;;6.20;5.30;;;;;;;21.61;73.92;97119.19;108654;1274;22539;-78
2023/08/19 18:08:29;;;;;;;7.00;5.70;;;;;;;21.51;74.56;97127.85;108711;1274;22618;-79
2023/08/19 18:10:58;;;;;;;7.70;5.90;;;;;;;21.51;75.11;97129.79;108783;1272;22586;-80
2023/08/19 18:13:27;;;;;;;7.40;5.80;;;;;;;21.55;75.35;97122.61;108740;1272;22528;-80
2023/08/19 18:15:57;;;;;;;8.60;5.70;;;;;;;21.59;75.69;97116.59;108754;1274;23228;-79
2023/08/19 18:18:28;;;;;;;8.70;6.10;;;;;;;21.65;75.88;97109.35;108725;1274;22532;-79
2023/08/19 18:20:58;;;;;;;8.00;6.40;;;;;;;21.66;75.82;97105.13;108714;1274;22548;-79
2023/08/19 18:23:28;;;;;;;8.20;5.60;;;;;;;21.55;75.83;97109.56;108735;1274;22528;-79
2023/08/19 18:25:57;;;;;;;9.10;5.90;;;;;;;21.50;76.24;97106.18;108722;1267;22889;-79
2023/08/19 18:28:27;;;;;;;6.90;6.20;;;;;;;21.55;76.39;97108.26;108794;1274;22541;-78
2023/08/19 18:30:57;;;;;;;9.40;6.10;;;;;;;21.63;76.49;97107.76;108813;1274;22531;-80
2023/08/19 18:33:27;;;;;;;8.20;6.50;;;;;;;21.69;76.34;97107.91;108796;1274;22528;-78
2023/08/19 18:35:57;;;;;;;6.60;5.90;;;;;;;21.66;76.47;97102.49;108755;1272;25275;-78
2023/08/19 18:38:27;;;;;;;6.70;6.10;;;;;;;21.64;76.61;97101.05;108819;1274;25233;-78
2023/08/19 18:41:00;;;;;;;7.30;6.60;;;;;;;21.58;76.67;97100.35;108775;1272;24259;-79
2023/08/19 18:43:31;;;;;;;6.50;5.40;;;;;;;21.49;76.97;97099.21;108858;1272;23895;-78
2023/08/19 18:46:02;;;;;;;6.90;6.20;;;;;;;21.50;77.21;97097.08;108798;1274;22548;-79
2023/08/19 18:48:32;;;;;;;7.20;6.50;;;;;;;21.52;77.33;97094.95;108746;1274;22528;-81
2023/08/19 18:51:02;;;;;;;7.00;6.30;;;;;;;21.52;77.49;97094.60;108858;1274;22608;-81
2023/08/19 18:53:32;;;;;;;8.40;5.80;;;;;;;21.53;77.67;97089.84;108959;1270;22528;-82
2023/08/19 18:56:03;;;;;;;8.90;7.00;;;;;;;21.51;77.72;97089.95;108841;1272;22589;-82
2023/08/19 18:58:32;;;;;;;9.80;6.40;;;;;;;21.49;77.94;97090.80;108941;1274;22566;-82
2023/08/19 19:01:06;;;;;;;7.60;6.50;;;;;;;21.45;77.89;97088.23;108904;1272;22577;-82
2023/08/19 19:03:36;;;;;;;6.90;6.30;;;;;;;21.37;78.18;97086.02;109127;1269;22528;-82
2023/08/19 19:06:06;;;;;;;6.90;6.20;;;;;;;21.27;78.38;97082.91;108881;1274;23164;-82
2023/08/19 19:08:35;;;;;;;7.10;6.40;;;;;;;21.20;78.76;97088.12;108788;1274;25070;-82
2023/08/19 19:11:04;;;;;;;7.10;6.40;;;;;;;21.11;79.14;97091.69;108863;1253;22634;-82
2023/08/19 19:13:34;;;;;;;6.70;6.00;;;;;;;21.01;79.39;97095.15;108826;1274;22538;-81
2023/08/19 19:16:02;;;;;;;7.30;6.60;;;;;;;20.95;79.95;97097.52;108774;1274;22520;-82
2023/08/19 19:18:34;;;;;;;7.70;6.90;;;;;;;20.92;80.43;97097.52;108814;1273;22698;-82
2023/08/19 19:21:03;;;;;;;8.20;6.40;;;;;;;20.91;80.72;97100.57;108869;1274;22545;-82
2023/08/19 19:23:32;;;;;;;7.30;6.10;;;;;;;20.93;80.97;97097.86;108825;1274;22571;-82
2023/08/19 19:26:01;;;;;;;;;;;;;;;20.91;81.16;97096.48;108772;1270;22547;-84
2023/08/19 19:28:31;;;;;;;10.30;6.40;;;;;;;20.89;81.48;97097.79;108617;1274;263477;-83
2023/08/19 19:31:02;;;;;;;8.70;6.00;;;;;;;20.87;81.79;97096.95;108779;1274;22535;-83
2023/08/19 19:33:32;;;;;;;8.50;6.60;;;;;;;20.89;81.76;97097.81;108708;1269;24189;-83
2023/08/19 19:36:02;;;;;;;6.90;6.20;;;;;;;20.90;81.99;97094.70;108780;1274;23507;-83
2023/08/19 19:38:33;;;;;;;7.80;7.00;;;;;;;20.90;82.12;97093.97;108758;1271;22537;-83
2023/08/19 19:41:05;;;;;;;8.50;7.70;;;;;;;20.88;82.29;97096.17;108835;1269;22540;-84
2023/08/19 19:43:35;;;;;;;8.00;6.70;;;;;;;20.87;82.57;97092.51;108818;1254;23240;-84
2023/08/19 19:46:07;;;;;;;9.50;7.70;;;;;;;20.88;82.74;97093.91;108717;1274;23031;-83
2023/08/19 19:48:38;;;;;;;9.00;7.50;;;;;;;20.91;82.68;97095.25;108839;1271;22528;-84
2023/08/19 19:51:07;;;;;;;9.30;7.90;;;;;;;20.95;82.72;97095.14;108802;1272;22532;-84
2023/08/19 19:53:41;;;;;;;8.10;7.30;;;;;;;21.00;82.62;97096.02;108755;1274;22525;-84
2023/08/19 19:56:12;;;;;;;8.00;7.20;;;;;;;21.03;82.43;97099.38;108715;1266;22527;-83
2023/08/19 19:58:43;;;;;;;9.80;6.50;;;;;;;21.10;82.61;97102.94;108791;1272;22533;-83
2023/08/19 20:01:18;;;;;;;6.90;6.20;;;;;;;21.14;82.55;97103.11;108800;1274;24196;-83
2023/08/19 20:03:49;;;;;;;7.50;6.50;;;;;;;21.17;82.51;97102.59;108792;1272;22535;-84
2023/08/19 20:06:17;;;;;;;8.50;6.60;;;;;;;21.20;82.54;97104.23;108762;1271;22551;-83
2023/08/19 20:08:48;;;;;;;8.60;6.80;;;;;;;21.20;82.57;97101.15;108784;1274;21805;-83
2023/08/19 20:11:19;;;;;;;7.30;6.30;;;;;;;21.17;82.61;97100.36;108800;1266;22566;-83
2023/08/19 20:13:51;;;;;;;7.40;6.60;;;;;;;21.13;82.56;97100.61;108759;1273;22521;-83
2023/08/19 20:16:23;;;;;;;11.20;7.00;;;;;;;21.09;82.93;97102.39;108783;1267;24196;-83
2023/08/19 20:18:52;;;;;;;8.00;7.20;;;;;;;21.08;82.94;97108.39;108819;1272;22531;-83
2023/08/19 20:21:23;;;;;;;7.50;6.10;;;;;;;21.08;83.20;97105.53;108836;1274;24186;-83
2023/08/19 20:23:54;;;;;;;7.80;7.00;;;;;;;21.10;83.14;97109.66;108775;1266;22561;-83
2023/08/19 20:26:24;;;;;;;8.10;7.30;;;;;;;21.11;83.37;97108.92;108789;1273;22571;-83
2023/08/19 20:28:53;;;;;;;8.40;6.80;;;;;;;21.10;83.20;97115.05;108772;1266;22535;-83
2023/08/19 20:31:23;;;;;;;8.30;7.30;;;;;;;21.08;83.44;97114.31;108774;1274;22526;-83
2023/08/19 20:33:53;;;;;;;;;;;;;;;21.10;83.55;97119.53;108780;1274;22507;-83
2023/08/19 20:36:26;;;;;;;8.40;7.60;;;;;;;21.08;83.79;97116.78;108761;1272;22570;-83
2023/08/19 20:38:57;;;;;;;8.50;7.70;;;;;;;21.12;83.84;97119.77;109032;1274;22536;-83
2023/08/19 20:41:27;;;;;;;8.10;7.30;;;;;;;21.16;83.75;97119.20;108754;1266;22631;-83
2023/08/19 20:44:09;;;;;;;;;;;;;;;21.19;83.81;97123.55;108775;1271;24290;-84
2023/08/19 20:46:40;;;;;;;9.40;7.70;;;;;;;21.20;83.80;97117.27;108719;1271;24116;-83
2023/08/19 20:49:11;;;;;;;8.30;7.50;;;;;;;21.21;83.97;97118.14;108808;1274;22527;-83
2023/08/19 20:51:40;;;;;;;7.80;6.90;;;;;;;21.21;83.83;97117.45;108767;1272;22723;-83
2023/08/19 20:54:10;;;;;;;8.40;7.50;;;;;;;21.22;83.63;97118.09;108733;1267;22598;-83